• Join FlightAware (Why Join?)
  • Login
  • US Flag 
02:28PM EST


 

Airport Tracker/Info


-or-


 

Live Flight TrackerFlight Track Log ✈ N6ZQ ✈ 07-Sep-2013 ✈ VA42 - KCDW

Flight Track Log - Related Links

Times and Time Zones

All times are in EDT time to prevent confusion due to time zone crossing. See the N6ZQ flight status page for this flight to view local times or setup timezone preferences in your user account.

Time Position Orientation Groundspeed Altitude Reporting Facility
EDT Latitude Longitude Course Direction KTS MPH feet Rate Location/Type
07:01AM 38.3500 -77.3833 123° Southeast 152 175 1,800  Level Potomac TRACON
07:02AM 38.3333 -77.3500 123° Southeast 158 182 3,000 1,020 Climbing Potomac TRACON
07:03AM 38.3333 -77.2833 90° East 173 199 3,800 900 Climbing Potomac TRACON
07:04AM 38.3333 -77.2167 90° East 195 224 4,800 600 Climbing Potomac TRACON
07:05AM 38.3333 -77.1500 90° East 192 221 5,000 60 Climbing Potomac TRACON
07:06AM 38.3167 -77.0833 108° East 192 221 5,000  Level Potomac TRACON
07:07AM 38.3167 -77.0167 90° East 187 215 5,000 300 Level Potomac TRACON
07:08AM 38.3167 -76.9500 90° East 194 223 5,600 780 Climbing Potomac TRACON
07:09AM 38.3122 -76.8725 94° East 197 227 6,900 1,020 Climbing Washington Center
07:10AM 38.3089 -76.8117 94° East 185 213 8,000 960 Climbing Washington Center
07:11AM 38.3053 -76.7481 94° East 170 196 8,900 840 Climbing Washington Center
07:12AM 38.3017 -76.6978 95° East 170 196 9,700 840 Climbing Washington Center
07:13AM 38.2981 -76.6236 94° East 170 196 10,600 600 Climbing Washington Center
07:14AM 38.2944 -76.5572 94° East 175 201 11,000 180 Climbing Washington Center
07:15AM 38.3053 -76.4939 78° East 187 215 11,000  Level Washington Center
07:16AM 38.3475 -76.4361 47° Northeast 177 204 11,000  Level Washington Center
07:17AM 38.3853 -76.3836 47° Northeast 191 220 11,000  Level Washington Center
07:18AM 38.4211 -76.3258 52° Northeast 203 234 11,000  Level Washington Center
07:19AM 38.4589 -76.2731 48° Northeast 203 234 11,000 -120 Level Washington Center
07:20AM 38.5031 -76.2283 38° Northeast 203 234 10,800 -420 Descending Washington Center
07:21AM 38.5511 -76.1836 36° Northeast 203 234 10,200 -660 Descending Washington Center
07:22AM 38.5972 -76.1389 37° Northeast 221 254 9,600 -600 Descending Washington Center
07:23AM 38.6456 -76.0942 36° Northeast 226 260 9,100 -300 Descending Washington Center
07:24AM 38.6914 -76.0464 39° Northeast 219 252 9,000 -240 Descending Washington Center
07:25AM 38.7375 -76.0042 36° Northeast 212 244 8,700 -480 Descending Washington Center
07:26AM 38.7836 -75.9592 37° Northeast 207 238 8,100 -360 Descending Washington Center
07:27AM 38.8169 -75.9247 39° Northeast 202 232 8,000 -60 Descending Washington Center
07:28AM 38.8692 -75.8742 37° Northeast 202 232 8,000  Level Washington Center
07:29AM 38.9089 -75.8344 38° Northeast 191 220 8,000 -180 Level Washington Center
07:30AM 38.9506 -75.7944 37° Northeast 186 214 7,700 -420 Descending Washington Center
07:31AM 38.9944 -75.7519 37° Northeast 186 214 7,200 -600 Descending Washington Center
07:32AM 39.0403 -75.7119 34° Northeast 191 220 6,600 -600 Descending Washington Center
07:33AM 39.0967 -75.7039 North 185 213 6,100 -540 Descending Washington Center
07:34AM 39.1531 -75.6986 North 191 220 5,600 -420 Descending Washington Center
07:36AM 39.2667 -75.6833 North 177 204 5,000 -240 Descending Philadelphia TRACON
07:37AM 39.3000 -75.6667 21° North 171 197 5,000  Level Philadelphia TRACON
07:38AM 39.3500 -75.6500 14° North 169 194 5,000  Level Philadelphia TRACON
07:40AM 39.4167 -75.6333 11° North 164 189 5,000  Level Philadelphia TRACON
07:40AM 39.4500 -75.6333 360° North 167 192 5,000  Level Philadelphia TRACON
07:41AM 39.5000 -75.6167 14° North 170 196 5,000  Level Philadelphia TRACON
07:42AM 39.5500 -75.6000 14° North 171 197 5,000  Level Philadelphia TRACON
07:43AM 39.6000 -75.6000 360° North 173 199 5,000  Level Philadelphia TRACON
07:44AM 39.6500 -75.5833 14° North 174 200 5,000  Level Philadelphia TRACON
07:45AM 39.6833 -75.5667 21° North 172 198 5,000  Level Philadelphia TRACON
07:46AM 39.7333 -75.5500 14° North 174 200 5,000  Level Philadelphia TRACON
07:47AM 39.7833 -75.5500 360° North 174 200 5,000  Level Philadelphia TRACON
07:48AM 39.8167 -75.5500 360° North 183 211 5,000  Level Philadelphia TRACON
07:49AM 39.8667 -75.5667 346° North 174 200 5,000 -120 Level Philadelphia TRACON
07:50AM 39.9167 -75.5500 14° North 182 209 4,800 -420 Descending Philadelphia TRACON
07:51AM 39.9667 -75.5167 27° Northeast 191 220 4,200 -420 Descending Philadelphia TRACON
07:52AM 40.0167 -75.5000 14° North 184 212 4,000 -120 Descending Philadelphia TRACON
07:53AM 40.0500 -75.4833 21° North 172 198 4,000  Level Philadelphia TRACON
07:54AM 40.0833 -75.4333 49° Northeast 176 203 4,000  Level Philadelphia TRACON
07:55AM 40.1167 -75.3833 49° Northeast 171 197 4,000  Level Philadelphia TRACON
07:56AM 40.1500 -75.3500 37° Northeast 170 196 4,000  Level Philadelphia TRACON
07:57AM 40.1833 -75.3000 49° Northeast 170 196 4,000  Level Philadelphia TRACON
07:58AM 40.2167 -75.2500 49° Northeast 173 199 4,000  Level Philadelphia TRACON
07:59AM 40.2500 -75.2167 37° Northeast 172 198 4,000  Level Philadelphia TRACON
08:02AM 40.3333 -75.1000 47° Northeast 176 203 4,000  Level New York TRACON
08:03AM 40.3667 -75.0500 49° Northeast 172 198 4,000  Level New York TRACON
08:04AM 40.4000 -75.0167 37° Northeast 175 201 4,000  Level New York TRACON
08:05AM 40.4167 -74.9667 66° East 174 200 4,000  Level New York TRACON
08:06AM 40.4500 -74.9167 49° Northeast 172 198 4,000  Level New York TRACON
08:07AM 40.4833 -74.8667 49° Northeast 174 200 4,000  Level New York TRACON
08:08AM 40.5167 -74.8167 49° Northeast 172 198 4,000  Level New York TRACON
08:09AM 40.5500 -74.7833 37° Northeast 175 201 4,000  Level New York TRACON
08:09AM 40.5667 -74.7333 66° East 172 198 4,000  Level New York TRACON
08:10AM 40.6000 -74.6833 49° Northeast 172 198 4,000 -240 Level New York TRACON
08:11AM 40.6333 -74.6333 49° Northeast 186 214 3,600 -480 Descending New York TRACON
08:12AM 40.6667 -74.6000 37° Northeast 193 222 3,100 -360 Descending New York TRACON
08:13AM 40.7000 -74.5333 57° Northeast 183 211 3,000 -60 Descending New York TRACON
08:14AM 40.7333 -74.5000 37° Northeast 174 200 3,000  Level New York TRACON
08:15AM 40.7667 -74.4500 49° Northeast 172 198 3,000 -60 Level New York TRACON
08:16AM 40.8000 -74.4000 49° Northeast 172 198 2,900 -600 Descending New York TRACON
08:17AM 40.8167 -74.3667 57° Northeast 182 209 1,900 -840 Descending New York TRACON
08:18AM 40.8500 -74.3167 49° Northeast 151 174 1,400 -300 Descending New York TRACON
08:19AM 40.8833 -74.3000 21° North 127 146 1,400  Level New York TRACON
08:20AM 40.9167 -74.2833 21° North 115 132 1,400 -120 Level New York TRACON
08:21AM 40.9000 -74.2667 143° Southeast 136 157 1,200 -240 Descending New York TRACON
08:23AM 40.8667 -74.2667 180° South  Level FlightAware Approximate
08:30AM 40.8752 -74.2814 180° South  Level Estimated
08:31AM 40.8752 -74.2814 180° South  Level Estimated
08:32AM 40.8752 -74.2814 180° South  Level Estimated